sensor_id;sensor_type;location;lat;lon;timestamp;P1;durP1;ratioP1;P2;durP2;ratioP2
33786;SDS011;29742;51.540;9.358;2022-09-29T00:01:26;1.45;;;1.13;;
33786;SDS011;29742;51.540;9.358;2022-09-29T00:06:27;2.63;;;1.52;;
33786;SDS011;29742;51.540;9.358;2022-09-29T00:11:28;1.20;;;0.73;;
33786;SDS011;29742;51.540;9.358;2022-09-29T00:16:29;0.77;;;0.70;;
33786;SDS011;29742;51.540;9.358;2022-09-29T00:21:30;1.77;;;0.95;;
33786;SDS011;29742;51.540;9.358;2022-09-29T00:26:31;1.33;;;0.90;;
33786;SDS011;29742;51.540;9.358;2022-09-29T00:31:32;2.05;;;0.63;;
33786;SDS011;29742;51.540;9.358;2022-09-29T00:36:33;2.28;;;1.20;;
33786;SDS011;29742;51.540;9.358;2022-09-29T00:41:35;1.58;;;0.77;;
33786;SDS011;29742;51.540;9.358;2022-09-29T00:46:43;1.58;;;0.70;;
33786;SDS011;29742;51.540;9.358;2022-09-29T00:51:50;1.23;;;1.05;;
33786;SDS011;29742;51.540;9.358;2022-09-29T00:56:53;1.00;;;0.90;;
33786;SDS011;29742;51.540;9.358;2022-09-29T01:01:55;1.23;;;0.82;;
33786;SDS011;29742;51.540;9.358;2022-09-29T01:06:56;2.38;;;1.25;;
33786;SDS011;29742;51.540;9.358;2022-09-29T01:11:58;3.38;;;0.80;;
33786;SDS011;29742;51.540;9.358;2022-09-29T01:16:59;1.45;;;1.20;;
33786;SDS011;29742;51.540;9.358;2022-09-29T01:37:47;0.98;;;0.63;;
33786;SDS011;29742;51.540;9.358;2022-09-29T01:42:51;1.75;;;0.85;;
33786;SDS011;29742;51.540;9.358;2022-09-29T01:47:55;0.90;;;0.77;;
33786;SDS011;29742;51.540;9.358;2022-09-29T01:53:03;1.13;;;1.02;;
33786;SDS011;29742;51.540;9.358;2022-09-29T01:58:08;1.63;;;0.90;;
33786;SDS011;29742;51.540;9.358;2022-09-29T02:03:11;1.02;;;0.93;;
33786;SDS011;29742;51.540;9.358;2022-09-29T02:13:15;1.38;;;1.08;;
33786;SDS011;29742;51.540;9.358;2022-09-29T02:18:21;1.65;;;1.05;;
33786;SDS011;29742;51.540;9.358;2022-09-29T02:28:23;2.03;;;0.88;;
33786;SDS011;29742;51.540;9.358;2022-09-29T02:33:24;0.90;;;0.77;;
33786;SDS011;29742;51.540;9.358;2022-09-29T02:49:20;1.33;;;0.90;;
33786;SDS011;29742;51.540;9.358;2022-09-29T02:54:27;1.67;;;0.90;;
33786;SDS011;29742;51.540;9.358;2022-09-29T02:59:34;2.28;;;0.80;;
33786;SDS011;29742;51.540;9.358;2022-09-29T03:04:38;2.90;;;1.08;;
33786;SDS011;29742;51.540;9.358;2022-09-29T03:09:39;2.88;;;1.00;;
33786;SDS011;29742;51.540;9.358;2022-09-29T03:14:40;0.88;;;0.75;;
33786;SDS011;29742;51.540;9.358;2022-09-29T03:19:41;1.02;;;0.75;;
33786;SDS011;29742;51.540;9.358;2022-09-29T03:24:42;0.88;;;0.80;;
33786;SDS011;29742;51.540;9.358;2022-09-29T03:29:43;1.42;;;1.00;;
33786;SDS011;29742;51.540;9.358;2022-09-29T03:34:44;1.95;;;1.10;;
33786;SDS011;29742;51.540;9.358;2022-09-29T03:39:45;0.80;;;0.80;;
33786;SDS011;29742;51.540;9.358;2022-09-29T03:44:46;1.20;;;0.90;;
33786;SDS011;29742;51.540;9.358;2022-09-29T03:49:47;1.30;;;1.05;;
33786;SDS011;29742;51.540;9.358;2022-09-29T03:54:48;0.93;;;0.70;;
33786;SDS011;29742;51.540;9.358;2022-09-29T03:59:49;0.77;;;0.77;;
33786;SDS011;29742;51.540;9.358;2022-09-29T04:04:50;0.90;;;0.77;;
33786;SDS011;29742;51.540;9.358;2022-09-29T04:09:51;1.00;;;0.90;;
33786;SDS011;29742;51.540;9.358;2022-09-29T04:14:52;2.60;;;0.95;;
33786;SDS011;29742;51.540;9.358;2022-09-29T04:19:53;1.10;;;1.00;;
33786;SDS011;29742;51.540;9.358;2022-09-29T04:24:54;1.63;;;0.70;;
33786;SDS011;29742;51.540;9.358;2022-09-29T04:29:55;1.38;;;1.00;;
33786;SDS011;29742;51.540;9.358;2022-09-29T04:34:56;1.80;;;1.17;;
33786;SDS011;29742;51.540;9.358;2022-09-29T04:39:57;1.33;;;0.95;;
33786;SDS011;29742;51.540;9.358;2022-09-29T04:44:58;1.73;;;1.00;;
33786;SDS011;29742;51.540;9.358;2022-09-29T04:49:59;1.05;;;0.95;;
33786;SDS011;29742;51.540;9.358;2022-09-29T04:55:00;1.05;;;0.90;;
33786;SDS011;29742;51.540;9.358;2022-09-29T05:00:02;1.20;;;1.05;;
33786;SDS011;29742;51.540;9.358;2022-09-29T05:05:03;1.38;;;1.08;;
33786;SDS011;29742;51.540;9.358;2022-09-29T05:10:06;1.48;;;1.20;;
33786;SDS011;29742;51.540;9.358;2022-09-29T05:15:07;1.13;;;0.88;;
33786;SDS011;29742;51.540;9.358;2022-09-29T05:20:08;1.30;;;1.20;;
33786;SDS011;29742;51.540;9.358;2022-09-29T05:25:09;1.40;;;1.02;;
33786;SDS011;29742;51.540;9.358;2022-09-29T05:30:10;1.23;;;0.98;;
33786;SDS011;29742;51.540;9.358;2022-09-29T05:35:11;3.08;;;1.52;;
33786;SDS011;29742;51.540;9.358;2022-09-29T05:40:12;1.90;;;1.40;;
33786;SDS011;29742;51.540;9.358;2022-09-29T05:45:13;2.33;;;1.35;;
33786;SDS011;29742;51.540;9.358;2022-09-29T05:50:14;2.17;;;1.25;;
33786;SDS011;29742;51.540;9.358;2022-09-29T05:55:15;1.35;;;1.10;;
33786;SDS011;29742;51.540;9.358;2022-09-29T06:00:16;1.17;;;1.08;;
33786;SDS011;29742;51.540;9.358;2022-09-29T06:05:17;1.30;;;1.08;;
33786;SDS011;29742;51.540;9.358;2022-09-29T06:10:18;1.55;;;1.20;;
33786;SDS011;29742;51.540;9.358;2022-09-29T06:15:19;2.40;;;1.23;;
33786;SDS011;29742;51.540;9.358;2022-09-29T06:20:20;1.77;;;1.02;;
33786;SDS011;29742;51.540;9.358;2022-09-29T06:25:21;1.77;;;1.20;;
33786;SDS011;29742;51.540;9.358;2022-09-29T06:30:22;1.95;;;1.40;;
33786;SDS011;29742;51.540;9.358;2022-09-29T06:35:23;1.67;;;1.35;;
33786;SDS011;29742;51.540;9.358;2022-09-29T06:40:43;1.27;;;1.00;;
33786;SDS011;29742;51.540;9.358;2022-09-29T06:45:44;1.65;;;1.30;;
33786;SDS011;29742;51.540;9.358;2022-09-29T06:50:45;1.52;;;1.20;;
33786;SDS011;29742;51.540;9.358;2022-09-29T06:55:53;0.88;;;0.80;;
33786;SDS011;29742;51.540;9.358;2022-09-29T07:00:58;1.15;;;0.85;;
33786;SDS011;29742;51.540;9.358;2022-09-29T07:06:05;1.90;;;1.30;;
33786;SDS011;29742;51.540;9.358;2022-09-29T07:11:07;1.27;;;1.17;;
33786;SDS011;29742;51.540;9.358;2022-09-29T07:16:09;2.72;;;1.48;;
33786;SDS011;29742;51.540;9.358;2022-09-29T07:21:11;1.55;;;1.13;;
33786;SDS011;29742;51.540;9.358;2022-09-29T07:26:16;1.70;;;1.27;;
33786;SDS011;29742;51.540;9.358;2022-09-29T07:31:18;1.23;;;1.13;;
33786;SDS011;29742;51.540;9.358;2022-09-29T07:36:19;1.85;;;1.13;;
33786;SDS011;29742;51.540;9.358;2022-09-29T07:41:21;2.05;;;0.82;;
33786;SDS011;29742;51.540;9.358;2022-09-29T07:46:22;2.58;;;1.35;;
33786;SDS011;29742;51.540;9.358;2022-09-29T07:51:23;2.30;;;1.30;;
33786;SDS011;29742;51.540;9.358;2022-09-29T07:56:24;2.03;;;1.20;;
33786;SDS011;29742;51.540;9.358;2022-09-29T08:01:25;1.52;;;1.25;;
33786;SDS011;29742;51.540;9.358;2022-09-29T08:06:26;4.90;;;1.30;;
33786;SDS011;29742;51.540;9.358;2022-09-29T08:11:27;1.48;;;1.30;;
33786;SDS011;29742;51.540;9.358;2022-09-29T08:16:28;1.88;;;1.45;;
33786;SDS011;29742;51.540;9.358;2022-09-29T08:21:29;4.10;;;1.35;;
33786;SDS011;29742;51.540;9.358;2022-09-29T08:26:35;2.00;;;1.50;;
33786;SDS011;29742;51.540;9.358;2022-09-29T08:31:37;5.90;;;1.75;;
33786;SDS011;29742;51.540;9.358;2022-09-29T08:36:38;2.40;;;1.60;;
33786;SDS011;29742;51.540;9.358;2022-09-29T08:41:59;4.95;;;2.25;;
33786;SDS011;29742;51.540;9.358;2022-09-29T08:47:03;4.50;;;2.17;;
33786;SDS011;29742;51.540;9.358;2022-09-29T08:52:08;5.47;;;1.88;;
33786;SDS011;29742;51.540;9.358;2022-09-29T08:57:12;5.70;;;1.60;;
33786;SDS011;29742;51.540;9.358;2022-09-29T09:02:30;7.82;;;1.75;;
33786;SDS011;29742;51.540;9.358;2022-09-29T09:23:20;4.00;;;1.45;;
33786;SDS011;29742;51.540;9.358;2022-09-29T09:28:31;2.83;;;1.90;;
33786;SDS011;29742;51.540;9.358;2022-09-29T09:33:36;3.05;;;1.70;;
33786;SDS011;29742;51.540;9.358;2022-09-29T09:38:44;2.83;;;1.77;;
33786;SDS011;29742;51.540;9.358;2022-09-29T09:43:47;1.98;;;1.52;;
33786;SDS011;29742;51.540;9.358;2022-09-29T09:53:57;2.50;;;1.58;;
33786;SDS011;29742;51.540;9.358;2022-09-29T09:59:03;4.03;;;1.50;;
33786;SDS011;29742;51.540;9.358;2022-09-29T10:04:09;4.60;;;3.03;;
33786;SDS011;29742;51.540;9.358;2022-09-29T10:09:14;6.40;;;1.75;;
33786;SDS011;29742;51.540;9.358;2022-09-29T10:14:20;3.78;;;1.58;;
33786;SDS011;29742;51.540;9.358;2022-09-29T10:24:41;2.03;;;1.45;;
33786;SDS011;29742;51.540;9.358;2022-09-29T10:29:43;3.95;;;1.50;;
33786;SDS011;29742;51.540;9.358;2022-09-29T10:34:49;2.22;;;1.42;;
33786;SDS011;29742;51.540;9.358;2022-09-29T10:40:00;4.38;;;1.52;;
33786;SDS011;29742;51.540;9.358;2022-09-29T10:55:18;4.55;;;1.80;;
33786;SDS011;29742;51.540;9.358;2022-09-29T11:00:37;2.88;;;1.70;;
33786;SDS011;29742;51.540;9.358;2022-09-29T11:05:39;6.20;;;1.95;;
33786;SDS011;29742;51.540;9.358;2022-09-29T11:10:49;4.82;;;1.38;;
33786;SDS011;29742;51.540;9.358;2022-09-29T11:16:02;3.47;;;1.30;;
33786;SDS011;29742;51.540;9.358;2022-09-29T11:31:31;2.60;;;1.80;;
33786;SDS011;29742;51.540;9.358;2022-09-29T11:36:56;3.07;;;1.87;;
33786;SDS011;29742;51.540;9.358;2022-09-29T11:52:27;4.93;;;2.40;;
33786;SDS011;29742;51.540;9.358;2022-09-29T11:57:42;7.15;;;1.77;;
33786;SDS011;29742;51.540;9.358;2022-09-29T12:18:02;4.90;;;1.83;;
33786;SDS011;29742;51.540;9.358;2022-09-29T12:23:06;4.05;;;2.10;;
33786;SDS011;29742;51.540;9.358;2022-09-29T12:28:13;3.92;;;1.98;;
33786;SDS011;29742;51.540;9.358;2022-09-29T12:43:31;5.20;;;1.95;;
33786;SDS011;29742;51.540;9.358;2022-09-29T12:48:37;3.33;;;1.65;;
33786;SDS011;29742;51.540;9.358;2022-09-29T12:53:49;6.00;;;2.22;;
33786;SDS011;29742;51.540;9.358;2022-09-29T12:58:58;4.80;;;1.75;;
33786;SDS011;29742;51.540;9.358;2022-09-29T13:19:33;2.47;;;1.88;;
33786;SDS011;29742;51.540;9.358;2022-09-29T13:29:47;9.55;;;2.45;;
33786;SDS011;29742;51.540;9.358;2022-09-29T13:34:53;12.18;;;2.45;;
33786;SDS011;29742;51.540;9.358;2022-09-29T13:40:02;9.68;;;2.45;;
33786;SDS011;29742;51.540;9.358;2022-09-29T13:45:14;6.85;;;1.95;;
33786;SDS011;29742;51.540;9.358;2022-09-29T13:55:47;9.48;;;2.42;;
33786;SDS011;29742;51.540;9.358;2022-09-29T14:00:48;13.45;;;2.78;;
33786;SDS011;29742;51.540;9.358;2022-09-29T14:05:52;9.75;;;2.25;;
33786;SDS011;29742;51.540;9.358;2022-09-29T14:10:57;6.22;;;1.77;;
33786;SDS011;29742;51.540;9.358;2022-09-29T14:21:12;7.93;;;1.83;;
33786;SDS011;29742;51.540;9.358;2022-09-29T14:31:33;4.90;;;1.42;;
33786;SDS011;29742;51.540;9.358;2022-09-29T14:36:34;2.75;;;1.65;;
33786;SDS011;29742;51.540;9.358;2022-09-29T14:41:39;6.15;;;1.50;;
33786;SDS011;29742;51.540;9.358;2022-09-29T14:46:54;4.00;;;1.70;;
33786;SDS011;29742;51.540;9.358;2022-09-29T14:57:41;105.65;;;64.20;;
33786;SDS011;29742;51.540;9.358;2022-09-29T15:02:43;52.20;;;32.17;;
33786;SDS011;29742;51.540;9.358;2022-09-29T15:07:45;41.83;;;27.20;;
33786;SDS011;29742;51.540;9.358;2022-09-29T15:12:46;36.92;;;24.55;;
33786;SDS011;29742;51.540;9.358;2022-09-29T15:17:53;38.63;;;23.08;;
33786;SDS011;29742;51.540;9.358;2022-09-29T15:28:11;30.42;;;18.23;;
33786;SDS011;29742;51.540;9.358;2022-09-29T15:38:17;23.73;;;14.43;;
33786;SDS011;29742;51.540;9.358;2022-09-29T15:43:29;94.70;;;67.18;;
33786;SDS011;29742;51.540;9.358;2022-09-29T15:48:33;69.25;;;49.17;;
33786;SDS011;29742;51.540;9.358;2022-09-29T15:53:33;68.53;;;46.65;;
33786;SDS011;29742;51.540;9.358;2022-09-29T15:58:43;57.75;;;42.60;;
33786;SDS011;29742;51.540;9.358;2022-09-29T16:03:50;54.10;;;38.78;;
33786;SDS011;29742;51.540;9.358;2022-09-29T16:08:54;46.45;;;34.15;;
33786;SDS011;29742;51.540;9.358;2022-09-29T16:13:59;45.25;;;31.85;;
33786;SDS011;29742;51.540;9.358;2022-09-29T16:19:03;39.33;;;28.27;;
33786;SDS011;29742;51.540;9.358;2022-09-29T16:24:14;35.28;;;26.15;;
33786;SDS011;29742;51.540;9.358;2022-09-29T16:39:23;32.20;;;23.08;;
33786;SDS011;29742;51.540;9.358;2022-09-29T16:44:29;26.80;;;20.27;;
33786;SDS011;29742;51.540;9.358;2022-09-29T16:49:43;26.73;;;18.55;;
33786;SDS011;29742;51.540;9.358;2022-09-29T16:54:45;22.17;;;16.65;;
33786;SDS011;29742;51.540;9.358;2022-09-29T16:59:50;19.33;;;15.15;;
33786;SDS011;29742;51.540;9.358;2022-09-29T17:04:52;18.92;;;13.25;;
33786;SDS011;29742;51.540;9.358;2022-09-29T17:09:54;15.77;;;11.38;;
33786;SDS011;29742;51.540;9.358;2022-09-29T17:14:56;16.35;;;10.82;;
33786;SDS011;29742;51.540;9.358;2022-09-29T17:19:58;12.13;;;9.45;;
33786;SDS011;29742;51.540;9.358;2022-09-29T17:25:01;13.20;;;8.82;;
33786;SDS011;29742;51.540;9.358;2022-09-29T17:30:03;12.32;;;7.15;;
33786;SDS011;29742;51.540;9.358;2022-09-29T17:35:04;14.20;;;6.60;;
33786;SDS011;29742;51.540;9.358;2022-09-29T17:40:49;11.43;;;6.28;;
33786;SDS011;29742;51.540;9.358;2022-09-29T17:45:30;11.63;;;5.95;;
33786;SDS011;29742;51.540;9.358;2022-09-29T17:50:35;13.10;;;5.50;;
33786;SDS011;29742;51.540;9.358;2022-09-29T17:55:39;4.93;;;3.83;;
33786;SDS011;29742;51.540;9.358;2022-09-29T18:00:42;14.55;;;5.07;;
33786;SDS011;29742;51.540;9.358;2022-09-29T18:05:44;5.80;;;4.40;;
33786;SDS011;29742;51.540;9.358;2022-09-29T18:10:50;6.25;;;3.30;;
33786;SDS011;29742;51.540;9.358;2022-09-29T18:15:51;9.57;;;3.47;;
33786;SDS011;29742;51.540;9.358;2022-09-29T18:20:52;16.02;;;3.40;;
33786;SDS011;29742;51.540;9.358;2022-09-29T18:25:53;7.68;;;3.17;;
33786;SDS011;29742;51.540;9.358;2022-09-29T18:31:05;6.53;;;2.85;;
33786;SDS011;29742;51.540;9.358;2022-09-29T18:36:07;8.13;;;2.90;;
33786;SDS011;29742;51.540;9.358;2022-09-29T18:41:12;6.05;;;2.35;;
33786;SDS011;29742;51.540;9.358;2022-09-29T18:46:18;4.97;;;2.45;;
33786;SDS011;29742;51.540;9.358;2022-09-29T18:51:19;4.93;;;2.83;;
33786;SDS011;29742;51.540;9.358;2022-09-29T18:56:20;4.45;;;2.10;;
33786;SDS011;29742;51.540;9.358;2022-09-29T19:01:22;5.53;;;2.00;;
33786;SDS011;29742;51.540;9.358;2022-09-29T19:06:27;3.72;;;1.95;;
33786;SDS011;29742;51.540;9.358;2022-09-29T19:11:28;3.92;;;1.92;;
33786;SDS011;29742;51.540;9.358;2022-09-29T19:16:29;4.35;;;2.08;;
33786;SDS011;29742;51.540;9.358;2022-09-29T19:21:32;4.68;;;2.08;;
33786;SDS011;29742;51.540;9.358;2022-09-29T19:26:33;3.15;;;1.52;;
33786;SDS011;29742;51.540;9.358;2022-09-29T19:31:34;3.78;;;1.67;;
33786;SDS011;29742;51.540;9.358;2022-09-29T19:36:35;3.25;;;1.70;;
33786;SDS011;29742;51.540;9.358;2022-09-29T19:41:38;3.30;;;1.83;;
33786;SDS011;29742;51.540;9.358;2022-09-29T19:46:39;2.58;;;1.42;;
33786;SDS011;29742;51.540;9.358;2022-09-29T19:51:39;3.25;;;1.23;;
33786;SDS011;29742;51.540;9.358;2022-09-29T19:56:53;3.45;;;1.50;;
33786;SDS011;29742;51.540;9.358;2022-09-29T20:01:54;2.70;;;1.67;;
33786;SDS011;29742;51.540;9.358;2022-09-29T20:06:56;1.50;;;1.20;;
33786;SDS011;29742;51.540;9.358;2022-09-29T20:11:57;2.97;;;1.40;;
33786;SDS011;29742;51.540;9.358;2022-09-29T20:16:58;1.38;;;1.05;;
33786;SDS011;29742;51.540;9.358;2022-09-29T20:21:59;1.92;;;1.70;;
33786;SDS011;29742;51.540;9.358;2022-09-29T20:27:00;1.27;;;1.13;;
33786;SDS011;29742;51.540;9.358;2022-09-29T20:32:02;4.07;;;1.30;;
33786;SDS011;29742;51.540;9.358;2022-09-29T20:37:03;2.25;;;1.30;;
33786;SDS011;29742;51.540;9.358;2022-09-29T20:42:04;1.98;;;1.10;;
33786;SDS011;29742;51.540;9.358;2022-09-29T20:47:05;2.58;;;1.27;;
33786;SDS011;29742;51.540;9.358;2022-09-29T20:52:06;2.72;;;1.50;;
33786;SDS011;29742;51.540;9.358;2022-09-29T20:57:07;2.20;;;1.15;;
33786;SDS011;29742;51.540;9.358;2022-09-29T21:02:11;2.42;;;0.90;;
33786;SDS011;29742;51.540;9.358;2022-09-29T21:07:12;1.95;;;1.30;;
33786;SDS011;29742;51.540;9.358;2022-09-29T21:12:32;1.35;;;1.05;;
33786;SDS011;29742;51.540;9.358;2022-09-29T21:17:33;1.38;;;0.80;;
33786;SDS011;29742;51.540;9.358;2022-09-29T21:22:34;3.65;;;0.95;;
33786;SDS011;29742;51.540;9.358;2022-09-29T21:27:36;1.00;;;0.80;;
33786;SDS011;29742;51.540;9.358;2022-09-29T21:32:37;1.77;;;0.90;;
33786;SDS011;29742;51.540;9.358;2022-09-29T21:37:38;1.60;;;1.13;;
33786;SDS011;29742;51.540;9.358;2022-09-29T21:42:39;2.72;;;0.80;;
33786;SDS011;29742;51.540;9.358;2022-09-29T21:47:40;1.10;;;0.90;;
33786;SDS011;29742;51.540;9.358;2022-09-29T21:53:00;2.45;;;0.80;;
33786;SDS011;29742;51.540;9.358;2022-09-29T21:58:01;1.65;;;1.10;;
33786;SDS011;29742;51.540;9.358;2022-09-29T22:03:01;1.55;;;0.98;;
33786;SDS011;29742;51.540;9.358;2022-09-29T22:08:02;3.63;;;0.90;;
33786;SDS011;29742;51.540;9.358;2022-09-29T22:13:03;1.67;;;1.02;;
33786;SDS011;29742;51.540;9.358;2022-09-29T22:18:04;2.45;;;1.05;;
33786;SDS011;29742;51.540;9.358;2022-09-29T22:23:05;1.15;;;0.77;;
33786;SDS011;29742;51.540;9.358;2022-09-29T22:28:06;1.77;;;1.10;;
33786;SDS011;29742;51.540;9.358;2022-09-29T22:33:07;0.70;;;0.70;;
33786;SDS011;29742;51.540;9.358;2022-09-29T22:38:09;1.42;;;0.88;;
33786;SDS011;29742;51.540;9.358;2022-09-29T22:43:10;1.83;;;1.05;;
33786;SDS011;29742;51.540;9.358;2022-09-29T22:48:11;0.95;;;0.82;;
33786;SDS011;29742;51.540;9.358;2022-09-29T22:53:13;1.80;;;1.02;;
33786;SDS011;29742;51.540;9.358;2022-09-29T22:58:14;0.82;;;0.60;;
33786;SDS011;29742;51.540;9.358;2022-09-29T23:03:15;0.65;;;0.50;;
33786;SDS011;29742;51.540;9.358;2022-09-29T23:08:16;1.13;;;0.73;;
33786;SDS011;29742;51.540;9.358;2022-09-29T23:13:17;0.90;;;0.80;;
33786;SDS011;29742;51.540;9.358;2022-09-29T23:18:20;1.40;;;0.68;;
33786;SDS011;29742;51.540;9.358;2022-09-29T23:23:21;1.13;;;0.80;;
33786;SDS011;29742;51.540;9.358;2022-09-29T23:28:22;1.45;;;0.85;;
33786;SDS011;29742;51.540;9.358;2022-09-29T23:33:23;0.93;;;0.77;;
33786;SDS011;29742;51.540;9.358;2022-09-29T23:38:24;1.35;;;0.82;;
33786;SDS011;29742;51.540;9.358;2022-09-29T23:43:44;1.25;;;0.75;;
33786;SDS011;29742;51.540;9.358;2022-09-29T23:48:45;1.27;;;0.80;;
33786;SDS011;29742;51.540;9.358;2022-09-29T23:53:46;1.45;;;1.02;;
33786;SDS011;29742;51.540;9.358;2022-09-29T23:58:47;0.90;;;0.60;;
